Time;durP1;ratioP1;P1;durP2;ratioP2;P2;SDS_P1;SDS_P2;PMS_P1;PMS_P2;Temp;Humidity;BMP_temperature;BMP_pressure;BME280_temperature;BME280_humidity;BME280_pressure;Samples;Min_cycle;Max_cycle;Signal;HPM_P1;HPM_P2
2021/06/23 00:02:04;;;;;;;7.83;5.47;;;;;;;;;;5001799;28;20193;-86
2021/06/23 00:05:09;;;;;;;10.87;5.63;;;;;;;;;;5001862;28;20509;-85
2021/06/23 00:08:13;;;;;;;9.00;4.87;;;;;;;;;;5008112;28;20190;-85
2021/06/23 00:11:19;;;;;;;8.70;6.00;;;;;;;;;;5004608;28;20609;-86
2021/06/23 00:14:30;;;;;;;6.77;5.73;;;;;;;;;;4984005;28;20538;-85
2021/06/23 00:17:34;;;;;;;12.23;5.27;;;;;;;;;;4993437;28;20206;-85
2021/06/23 00:20:39;;;;;;;7.20;5.70;;;;;;;;;;4973981;28;20226;-86
2021/06/23 00:23:43;;;;;;;7.67;5.00;;;;;;;;;;4974276;28;20186;-86
2021/06/23 00:26:47;;;;;;;10.17;5.17;;;;;;;;;;4982249;28;20182;-85
2021/06/23 00:29:51;;;;;;;6.97;4.37;;;;;;;;;;5006702;28;20226;-85
2021/06/23 00:33:07;;;;;;;5.83;3.40;;;;;;;;;;5004162;28;20194;-85
2021/06/23 00:36:11;;;;;;;12.90;3.03;;;;;;;;;;4970723;28;20202;-85
2021/06/23 00:39:16;;;;;;;6.43;3.10;;;;;;;;;;5005071;28;20205;-85
2021/06/23 00:42:20;;;;;;;6.67;3.83;;;;;;;;;;5012710;28;20190;-85
2021/06/23 00:45:26;;;;;;;5.37;3.37;;;;;;;;;;5003854;28;20198;-85
2021/06/23 00:48:30;;;;;;;5.10;3.50;;;;;;;;;;4998361;28;20209;-85
2021/06/23 00:51:40;;;;;;;6.43;3.80;;;;;;;;;;4986903;28;20697;-85
2021/06/23 00:55:03;;;;;;;6.13;3.40;;;;;;;;;;4992031;28;20198;-85
2021/06/23 00:58:13;;;;;;;7.40;3.87;;;;;;;;;;5003545;28;20658;-86
2021/06/23 01:01:17;;;;;;;8.23;3.47;;;;;;;;;;4985278;28;20305;-85
2021/06/23 01:04:23;;;;;;;3.97;3.43;;;;;;;;;;4984278;28;20190;-85
2021/06/23 01:07:27;;;;;;;6.20;3.43;;;;;;;;;;4990698;28;20195;-85
2021/06/23 01:10:46;;;;;;;5.27;3.27;;;;;;;;;;4999392;28;20691;-86
2021/06/23 01:14:04;;;;;;;5.37;3.50;;;;;;;;;;5011118;28;20210;-85
2021/06/23 01:17:09;;;;;;;11.20;3.80;;;;;;;;;;5011627;28;20202;-85
2021/06/23 01:20:16;;;;;;;6.17;3.27;;;;;;;;;;5013194;28;20221;-86
2021/06/23 01:23:20;;;;;;;4.43;3.33;;;;;;;;;;5005162;28;20177;-85
2021/06/23 01:26:25;;;;;;;4.53;2.80;;;;;;;;;;5015978;28;20178;-85
2021/06/23 01:29:30;;;;;;;6.13;2.70;;;;;;;;;;4996785;28;20222;-85
2021/06/23 01:32:46;;;;;;;5.83;2.87;;;;;;;;;;4981374;28;20210;-85
2021/06/23 01:35:53;;;;;;;3.60;2.80;;;;;;;;;;5007494;28;20198;-86
2021/06/23 01:38:57;;;;;;;5.30;3.07;;;;;;;;;;4999957;28;20197;-85
2021/06/23 01:42:01;;;;;;;11.43;4.17;;;;;;;;;;5004384;28;20170;-86
2021/06/23 01:45:07;;;;;;;5.63;3.30;;;;;;;;;;5004494;28;20182;-86
2021/06/23 01:48:15;;;;;;;5.23;3.60;;;;;;;;;;5015293;28;20186;-85
2021/06/23 01:51:20;;;;;;;5.40;3.30;;;;;;;;;;5006982;28;20222;-86
2021/06/23 01:54:27;;;;;;;5.03;3.50;;;;;;;;;;5023467;28;20190;-86
2021/06/23 01:57:38;;;;;;;5.43;3.37;;;;;;;;;;5013806;28;20174;-85
2021/06/23 02:01:07;;;;;;;4.30;3.53;;;;;;;;;;5027051;28;20565;-86
2021/06/23 02:04:32;;;;;;;4.57;3.90;;;;;;;;;;4992528;28;20202;-86
2021/06/23 02:08:00;;;;;;;4.67;3.43;;;;;;;;;;4969091;28;20618;-86
2021/06/23 02:11:39;;;;;;;7.50;4.30;;;;;;;;;;5003860;28;20221;-86
2021/06/23 02:14:53;;;;;;;6.93;4.37;;;;;;;;;;5011053;28;20189;-86
2021/06/23 02:18:12;;;;;;;6.03;5.43;;;;;;;;;;4999688;28;20672;-86
2021/06/23 02:21:38;;;;;;;7.27;5.73;;;;;;;;;;5014205;28;20190;-86
2021/06/23 02:24:46;;;;;;;7.23;5.37;;;;;;;;;;4993491;28;20194;-86
2021/06/23 02:28:01;;;;;;;11.07;5.10;;;;;;;;;;4971330;28;20653;-86
2021/06/23 02:31:08;;;;;;;6.87;4.80;;;;;;;;;;5014627;28;20221;-86
2021/06/23 02:34:18;;;;;;;5.90;4.90;;;;;;;;;;5006817;28;20201;-86
2021/06/23 02:37:46;;;;;;;6.60;6.00;;;;;;;;;;4998958;28;20653;-86
2021/06/23 02:40:51;;;;;;;9.97;8.97;;;;;;;;;;4964535;28;20234;-86
2021/06/23 02:43:55;;;;;;;12.13;10.50;;;;;;;;;;4986859;28;20189;-86
2021/06/23 02:47:06;;;;;;;16.37;13.37;;;;;;;;;;4975976;28;20648;-86
2021/06/23 02:50:35;;;;;;;14.13;12.73;;;;;;;;;;4997885;28;20593;-86
2021/06/23 02:54:01;;;;;;;13.17;11.87;;;;;;;;;;5008462;28;20640;-86
2021/06/23 02:57:23;;;;;;;16.57;14.97;;;;;;;;;;5004188;28;20209;-86
2021/06/23 03:00:27;;;;;;;16.57;14.87;;;;;;;;;;4982346;28;20219;-86
2021/06/23 03:03:31;;;;;;;15.80;14.23;;;;;;;;;;5025667;28;20185;-86
2021/06/23 03:06:37;;;;;;;11.93;10.83;;;;;;;;;;5014507;28;20189;-86
2021/06/23 03:09:43;;;;;;;15.30;13.70;;;;;;;;;;5011729;28;20232;-85
2021/06/23 03:13:14;;;;;;;15.83;13.93;;;;;;;;;;5019721;28;20240;-87
2021/06/23 03:16:20;;;;;;;13.03;11.60;;;;;;;;;;5010248;28;20188;-88
2021/06/23 03:19:26;;;;;;;13.37;11.97;;;;;;;;;;4981020;28;20212;-88
2021/06/23 03:22:30;;;;;;;13.87;12.47;;;;;;;;;;4990614;28;20616;-88
2021/06/23 03:25:35;;;;;;;14.87;12.50;;;;;;;;;;4990434;28;20197;-88
2021/06/23 03:28:40;;;;;;;16.33;14.37;;;;;;;;;;5001749;28;20205;-87
2021/06/23 03:31:45;;;;;;;16.43;14.07;;;;;;;;;;4990427;28;20217;-87
2021/06/23 03:34:50;;;;;;;13.87;12.57;;;;;;;;;;4991192;28;20564;-87
2021/06/23 03:37:55;;;;;;;16.67;14.87;;;;;;;;;;5019545;28;20675;-87
2021/06/23 03:41:00;;;;;;;19.83;15.60;;;;;;;;;;5008689;28;20239;-87
2021/06/23 03:44:05;;;;;;;16.67;14.97;;;;;;;;;;5021216;28;20176;-88
2021/06/23 03:47:11;;;;;;;16.37;14.40;;;;;;;;;;4998913;28;20635;-87
2021/06/23 03:50:18;;;;;;;15.03;13.43;;;;;;;;;;4983847;28;20297;-88
2021/06/23 03:53:25;;;;;;;16.00;14.50;;;;;;;;;;4998597;28;20216;-88
2021/06/23 03:56:30;;;;;;;14.63;13.17;;;;;;;;;;4982918;28;20205;-88
2021/06/23 03:59:36;;;;;;;14.27;12.87;;;;;;;;;;4985820;28;20236;-87
2021/06/23 04:02:41;;;;;;;15.60;14.00;;;;;;;;;;4998123;28;20185;-87
2021/06/23 04:05:46;;;;;;;16.97;15.27;;;;;;;;;;5008851;28;20211;-87
2021/06/23 04:08:50;;;;;;;15.00;13.60;;;;;;;;;;4992103;28;20218;-87
2021/06/23 04:11:55;;;;;;;25.17;12.90;;;;;;;;;;4981421;28;20230;-88
2021/06/23 04:15:00;;;;;;;15.13;13.63;;;;;;;;;;4954230;28;20572;-88
2021/06/23 04:18:05;;;;;;;14.07;12.77;;;;;;;;;;4991114;28;20689;-87
2021/06/23 04:21:09;;;;;;;12.27;11.07;;;;;;;;;;4990137;28;20220;-87
2021/06/23 04:24:14;;;;;;;13.33;12.03;;;;;;;;;;4970533;28;20550;-88
2021/06/23 04:27:21;;;;;;;13.77;12.47;;;;;;;;;;4971900;28;20213;-88
2021/06/23 04:30:26;;;;;;;13.67;12.37;;;;;;;;;;5007116;28;20219;-84
2021/06/23 04:33:30;;;;;;;11.77;10.57;;;;;;;;;;4978334;28;20216;-84
2021/06/23 04:36:42;;;;;;;11.80;10.70;;;;;;;;;;5008298;28;20212;-83
2021/06/23 04:39:46;;;;;;;11.63;10.53;;;;;;;;;;4960143;28;20742;-84
2021/06/23 04:42:53;;;;;;;12.50;11.20;;;;;;;;;;4963408;28;20186;-85
2021/06/23 04:45:57;;;;;;;12.30;10.50;;;;;;;;;;4962757;28;20193;-85
2021/06/23 04:49:02;;;;;;;14.93;11.60;;;;;;;;;;5021205;22;20228;-86
2021/06/23 04:52:32;;;;;;;14.23;11.53;;;;;;;;;;4989386;28;20221;-86
2021/06/23 04:55:36;;;;;;;12.17;10.97;;;;;;;;;;4975005;28;20189;-87
2021/06/23 04:58:46;;;;;;;12.00;10.70;;;;;;;;;;4978074;28;20229;-87
2021/06/23 05:01:52;;;;;;;12.50;11.30;;;;;;;;;;4955637;28;20251;-86
2021/06/23 05:04:57;;;;;;;9.63;8.73;;;;;;;;;;4966372;28;20185;-86
2021/06/23 05:08:01;;;;;;;11.60;10.17;;;;;;;;;;4966083;28;20183;-86
2021/06/23 05:11:05;;;;;;;10.87;9.73;;;;;;;;;;4966288;28;20197;-87
2021/06/23 05:14:11;;;;;;;13.63;10.37;;;;;;;;;;4979917;28;20191;-87
2021/06/23 05:17:15;;;;;;;10.23;9.33;;;;;;;;;;4977540;28;20193;-87
2021/06/23 05:20:21;;;;;;;11.97;10.87;;;;;;;;;;4984936;28;20222;-86
2021/06/23 05:23:26;;;;;;;11.93;9.57;;;;;;;;;;4966138;28;20187;-87
2021/06/23 05:26:30;;;;;;;11.40;10.33;;;;;;;;;;4976992;28;20183;-86
2021/06/23 05:29:35;;;;;;;10.80;9.80;;;;;;;;;;4974751;28;20754;-87
2021/06/23 05:32:39;;;;;;;14.57;12.43;;;;;;;;;;4965751;28;20210;-87
2021/06/23 05:35:43;;;;;;;14.13;12.73;;;;;;;;;;4977026;28;20217;-86
2021/06/23 05:38:47;;;;;;;18.57;16.80;;;;;;;;;;4976548;28;20229;-87
2021/06/23 05:41:51;;;;;;;15.83;14.20;;;;;;;;;;4984970;28;20185;-87
2021/06/23 05:44:56;;;;;;;17.53;15.93;;;;;;;;;;4985081;28;20189;-87
2021/06/23 05:48:01;;;;;;;17.93;16.17;;;;;;;;;;4996228;28;20186;-85
2021/06/23 05:51:06;;;;;;;17.53;15.60;;;;;;;;;;4985285;28;20201;-85
2021/06/23 05:54:10;;;;;;;16.00;14.40;;;;;;;;;;4984899;28;20213;-86
2021/06/23 05:57:14;;;;;;;15.77;14.33;;;;;;;;;;4996035;28;20209;-86
2021/06/23 06:00:23;;;;;;;16.17;14.57;;;;;;;;;;4985027;28;20232;-86
2021/06/23 06:03:27;;;;;;;19.60;15.90;;;;;;;;;;4973374;28;20201;-87
2021/06/23 06:06:31;;;;;;;17.07;15.37;;;;;;;;;;4984722;28;20542;-86
2021/06/23 06:09:35;;;;;;;19.00;17.10;;;;;;;;;;4984336;28;20220;-86
2021/06/23 06:12:39;;;;;;;17.50;15.57;;;;;;;;;;4974491;28;20221;-87
2021/06/23 06:15:43;;;;;;;17.63;15.83;;;;;;;;;;4972927;28;20205;-87
2021/06/23 06:18:48;;;;;;;18.30;16.60;;;;;;;;;;4984175;28;20228;-87
2021/06/23 06:21:54;;;;;;;17.67;15.87;;;;;;;;;;4995194;28;20284;-87
2021/06/23 06:24:59;;;;;;;17.33;15.50;;;;;;;;;;4953618;28;20210;-87
2021/06/23 06:28:03;;;;;;;13.57;12.27;;;;;;;;;;4995825;28;20235;-87
2021/06/23 06:31:08;;;;;;;13.60;12.37;;;;;;;;;;4995689;28;20185;-86
2021/06/23 06:34:12;;;;;;;13.60;12.30;;;;;;;;;;4984190;28;20205;-87
2021/06/23 06:37:16;;;;;;;10.13;9.20;;;;;;;;;;4993759;28;20201;-87
2021/06/23 06:40:20;;;;;;;10.47;9.43;;;;;;;;;;4986885;28;20206;-87
2021/06/23 06:43:25;;;;;;;9.37;8.50;;;;;;;;;;4983507;28;20194;-87
2021/06/23 06:46:29;;;;;;;8.97;8.13;;;;;;;;;;4994904;28;20676;-87
2021/06/23 06:49:34;;;;;;;6.87;6.13;;;;;;;;;;4983090;28;20230;-86
2021/06/23 06:52:38;;;;;;;6.70;6.13;;;;;;;;;;4983477;28;20558;-86
2021/06/23 06:55:43;;;;;;;6.67;6.03;;;;;;;;;;4983415;28;20541;-86
2021/06/23 06:58:47;;;;;;;7.10;6.40;;;;;;;;;;5005571;28;20222;-87
2021/06/23 07:01:51;;;;;;;6.90;6.30;;;;;;;;;;4994340;28;20190;-87
2021/06/23 07:04:55;;;;;;;8.67;7.17;;;;;;;;;;4983332;28;20178;-87
2021/06/23 07:08:00;;;;;;;8.90;7.10;;;;;;;;;;5005130;28;20202;-87
2021/06/23 07:11:04;;;;;;;7.67;6.97;;;;;;;;;;4994543;28;20186;-90
2021/06/23 07:14:08;;;;;;;8.20;7.47;;;;;;;;;;4986146;28;20218;-87
2021/06/23 07:17:12;;;;;;;8.27;6.33;;;;;;;;;;4988961;28;20186;-88
2021/06/23 07:20:16;;;;;;;7.63;6.63;;;;;;;;;;4975529;28;20226;-87
2021/06/23 07:23:20;;;;;;;7.33;6.23;;;;;;;;;;4983517;28;20182;-87
2021/06/23 07:26:26;;;;;;;7.00;6.30;;;;;;;;;;4985679;28;20196;-87
2021/06/23 07:29:30;;;;;;;7.60;6.83;;;;;;;;;;4974363;28;20559;-87
2021/06/23 07:32:42;;;;;;;6.83;6.07;;;;;;;;;;4994031;28;20191;-88
2021/06/23 07:39:11;;;;;;;6.30;5.63;;;;;;;;;;4993892;28;20224;-87
2021/06/23 07:42:15;;;;;;;7.07;6.37;;;;;;;;;;4993757;28;20196;-87
2021/06/23 07:45:19;;;;;;;6.13;5.53;;;;;;;;;;4982472;28;20194;-87
2021/06/23 07:48:33;;;;;;;6.20;5.70;;;;;;;;;;5005000;28;20229;-87
2021/06/23 08:11:18;;;;;;;10.00;5.63;;;;;;;;;;4987238;28;20193;-87
2021/06/23 08:14:22;;;;;;;4.80;4.30;;;;;;;;;;4982601;28;20669;-87
2021/06/23 08:17:26;;;;;;;14.63;6.83;;;;;;;;;;4994182;28;20205;-86
2021/06/23 08:20:31;;;;;;;12.17;5.73;;;;;;;;;;4994775;28;20213;-85
2021/06/23 08:23:35;;;;;;;6.40;4.45;;;;;;;;;;4986138;28;20634;-87
2021/06/23 08:26:39;;;;;;;138.52;34.80;;;;;;;;;;4994473;28;20586;-86
2021/06/23 08:29:43;;;;;;;12.88;6.22;;;;;;;;;;4992690;28;20245;-86
2021/06/23 08:32:48;;;;;;;4.13;3.50;;;;;;;;;;4994168;28;20184;-87
2021/06/23 08:35:53;;;;;;;7.55;3.83;;;;;;;;;;4982834;28;20200;-86
2021/06/23 08:38:58;;;;;;;3.63;3.40;;;;;;;;;;4994554;28;20224;-86
2021/06/23 08:42:02;;;;;;;5.25;2.83;;;;;;;;;;4984725;28;20651;-88
2021/06/23 08:45:08;;;;;;;4.75;2.70;;;;;;;;;;4975502;28;20182;-87
2021/06/23 08:48:13;;;;;;;2.65;2.45;;;;;;;;;;4979816;28;20540;-87
2021/06/23 08:51:17;;;;;;;2.83;2.25;;;;;;;;;;4982233;28;20198;-86
2021/06/23 08:54:23;;;;;;;3.15;2.40;;;;;;;;;;4985857;28;20220;-87
2021/06/23 08:57:27;;;;;;;3.45;2.65;;;;;;;;;;5004699;28;20189;-87
2021/06/23 09:00:32;;;;;;;3.60;2.55;;;;;;;;;;4976248;28;20193;-86
2021/06/23 09:03:59;;;;;;;2.72;2.53;;;;;;;;;;5005286;28;20199;-87
2021/06/23 09:07:04;;;;;;;2.83;2.10;;;;;;;;;;4991976;28;20203;-87
2021/06/23 09:10:32;;;;;;;2.67;2.47;;;;;;;;;;4974055;28;20233;-87
2021/06/23 09:13:36;;;;;;;2.78;2.58;;;;;;;;;;4999196;28;20218;-87
2021/06/23 09:17:05;;;;;;;2.63;2.30;;;;;;;;;;4994157;28;20184;-86
2021/06/23 09:20:09;;;;;;;3.00;2.80;;;;;;;;;;4992921;28;20233;-88
2021/06/23 09:23:14;;;;;;;4.40;2.72;;;;;;;;;;4982027;28;20194;-86
2021/06/23 09:26:24;;;;;;;4.00;2.88;;;;;;;;;;4993646;28;20194;-87
2021/06/23 09:29:28;;;;;;;4.85;2.80;;;;;;;;;;4984073;28;20695;-87
2021/06/23 09:32:33;;;;;;;2.92;2.70;;;;;;;;;;4993732;28;20196;-86
2021/06/23 09:36:00;;;;;;;3.70;2.78;;;;;;;;;;4980409;28;20668;-86
2021/06/23 09:39:04;;;;;;;5.10;3.22;;;;;;;;;;4996341;28;20214;-87
2021/06/23 09:42:09;;;;;;;4.55;3.10;;;;;;;;;;4977410;28;20205;-84
2021/06/23 09:45:16;;;;;;;5.28;3.08;;;;;;;;;;4982145;28;20233;-86
2021/06/23 09:48:20;;;;;;;3.78;3.30;;;;;;;;;;4995815;28;20236;-86
2021/06/23 09:51:25;;;;;;;4.13;3.72;;;;;;;;;;4996938;28;20619;-87
2021/06/23 09:54:30;;;;;;;6.13;4.15;;;;;;;;;;4984016;28;20218;-85
2021/06/23 09:57:39;;;;;;;6.18;3.60;;;;;;;;;;4984616;28;20195;-87
2021/06/23 10:01:05;;;;;;;5.20;3.40;;;;;;;;;;4972855;28;20193;-86
2021/06/23 10:04:10;;;;;;;5.00;3.80;;;;;;;;;;4964535;28;20205;-86
2021/06/23 10:07:36;;;;;;;5.85;3.63;;;;;;;;;;4989160;28;20181;-86
2021/06/23 10:10:43;;;;;;;8.32;3.53;;;;;;;;;;5005008;28;20194;-86
2021/06/23 10:13:47;;;;;;;4.40;2.65;;;;;;;;;;4981773;28;20216;-86
2021/06/23 10:16:53;;;;;;;3.95;2.67;;;;;;;;;;4984628;28;20191;-87
2021/06/23 10:19:58;;;;;;;3.90;2.70;;;;;;;;;;4987650;28;20222;-86
2021/06/23 10:23:04;;;;;;;6.70;2.78;;;;;;;;;;4991918;28;20188;-86
2021/06/23 10:26:09;;;;;;;7.38;3.28;;;;;;;;;;4984271;28;20176;-87
2021/06/23 10:29:18;;;;;;;5.47;2.60;;;;;;;;;;5006389;28;20217;-87
2021/06/23 10:32:23;;;;;;;2.80;2.50;;;;;;;;;;4996003;28;20530;-87
2021/06/23 10:35:28;;;;;;;4.53;2.58;;;;;;;;;;4983734;28;20222;-87
2021/06/23 10:38:35;;;;;;;2.63;2.30;;;;;;;;;;4994958;28;20217;-87
2021/06/23 10:41:42;;;;;;;3.03;2.70;;;;;;;;;;4995470;28;20186;-86
2021/06/23 10:44:53;;;;;;;16.30;3.47;;;;;;;;;;4984103;28;20522;-87
2021/06/23 10:48:01;;;;;;;4.00;2.55;;;;;;;;;;4983331;28;20664;-86
2021/06/23 10:51:28;;;;;;;4.57;2.90;;;;;;;;;;4994907;28;20210;-88
2021/06/23 10:54:32;;;;;;;5.20;2.97;;;;;;;;;;4975181;28;20559;-87
2021/06/23 10:57:41;;;;;;;3.65;2.95;;;;;;;;;;4964743;28;20185;-88
2021/06/23 11:00:48;;;;;;;3.13;2.70;;;;;;;;;;4964502;28;20661;-87
2021/06/23 11:04:02;;;;;;;4.47;2.95;;;;;;;;;;4964567;28;20188;-87
2021/06/23 11:07:36;;;;;;;3.28;2.97;;;;;;;;;;4986134;28;20677;-88
2021/06/23 11:10:40;;;;;;;2.42;2.22;;;;;;;;;;4983569;28;20202;-88
2021/06/23 11:13:44;;;;;;;3.90;2.50;;;;;;;;;;4975352;28;20179;-87
2021/06/23 11:16:49;;;;;;;5.70;2.67;;;;;;;;;;4989398;28;20206;-88
2021/06/23 11:19:54;;;;;;;3.40;2.67;;;;;;;;;;4983154;28;20222;-87
2021/06/23 11:22:58;;;;;;;2.72;2.53;;;;;;;;;;4983442;28;20198;-87
2021/06/23 11:26:02;;;;;;;9.18;3.22;;;;;;;;;;4993861;28;20186;-88
2021/06/23 11:29:09;;;;;;;3.05;2.80;;;;;;;;;;4982527;28;20222;-87
2021/06/23 11:32:25;;;;;;;3.00;2.80;;;;;;;;;;4963868;28;20186;-88
2021/06/23 11:35:29;;;;;;;3.72;3.10;;;;;;;;;;5002300;28;20222;-86
2021/06/23 11:38:35;;;;;;;5.03;3.47;;;;;;;;;;5005760;28;20247;-84
2021/06/23 11:41:39;;;;;;;3.40;2.92;;;;;;;;;;4995046;28;20641;-87
2021/06/23 11:44:43;;;;;;;3.38;3.08;;;;;;;;;;4983509;28;20172;-85
2021/06/23 11:47:47;;;;;;;3.10;2.80;;;;;;;;;;4994282;28;20269;-85
2021/06/23 11:50:53;;;;;;;5.60;2.58;;;;;;;;;;4983075;28;20182;-85
2021/06/23 11:53:57;;;;;;;8.98;3.13;;;;;;;;;;4994285;28;20183;-86
2021/06/23 11:57:02;;;;;;;4.30;3.90;;;;;;;;;;4994377;28;20183;-85
2021/06/23 12:00:07;;;;;;;4.03;3.05;;;;;;;;;;4993818;28;20692;-85
2021/06/23 12:03:15;;;;;;;4.40;3.00;;;;;;;;;;4993957;28;20556;-85
2021/06/23 12:06:19;;;;;;;3.15;2.85;;;;;;;;;;4994151;28;20182;-86
2021/06/23 12:09:23;;;;;;;3.65;3.10;;;;;;;;;;4983140;28;20222;-85
2021/06/23 12:12:28;;;;;;;10.10;3.10;;;;;;;;;;4994130;28;20633;-85
2021/06/23 12:15:33;;;;;;;3.17;2.88;;;;;;;;;;4975010;28;20211;-85
2021/06/23 12:18:37;;;;;;;3.28;2.97;;;;;;;;;;4975918;28;20701;-86
2021/06/23 12:21:41;;;;;;;3.90;3.53;;;;;;;;;;4986242;28;20179;-86
2021/06/23 12:24:48;;;;;;;3.50;3.00;;;;;;;;;;4994124;28;20198;-85
2021/06/23 12:27:53;;;;;;;5.43;3.17;;;;;;;;;;4993539;28;20201;-85
2021/06/23 12:30:57;;;;;;;7.13;3.47;;;;;;;;;;4982928;28;20174;-85
2021/06/23 12:34:07;;;;;;;3.75;3.00;;;;;;;;;;4983114;28;20186;-85
2021/06/23 12:37:11;;;;;;;3.65;3.35;;;;;;;;;;4994651;28;20517;-85
2021/06/23 12:40:16;;;;;;;5.63;3.78;;;;;;;;;;4994727;28;20214;-85
2021/06/23 12:43:20;;;;;;;6.82;3.85;;;;;;;;;;5005634;28;20182;-84
2021/06/23 12:46:24;;;;;;;5.50;3.67;;;;;;;;;;4995335;28;20185;-85
2021/06/23 12:49:29;;;;;;;3.95;3.28;;;;;;;;;;4997721;28;20226;-85
2021/06/23 12:52:33;;;;;;;13.88;3.60;;;;;;;;;;4985880;28;20179;-84
2021/06/23 12:55:37;;;;;;;7.60;3.70;;;;;;;;;;4999259;28;20213;-85
2021/06/23 12:58:41;;;;;;;4.28;3.20;;;;;;;;;;4993647;28;20704;-85
2021/06/23 13:01:46;;;;;;;4.30;3.13;;;;;;;;;;4981445;28;20188;-85
2021/06/23 13:04:49;;;;;;;4.15;2.60;;;;;;;;;;4994872;28;20180;-85
2021/06/23 13:07:54;;;;;;;5.38;3.45;;;;;;;;;;4982978;28;20188;-85
2021/06/23 13:10:59;;;;;;;3.80;3.17;;;;;;;;;;4993357;28;20176;-85
2021/06/23 13:14:03;;;;;;;3.50;3.10;;;;;;;;;;4995170;28;20184;-85
2021/06/23 13:17:09;;;;;;;13.05;3.67;;;;;;;;;;4994513;28;20170;-85
2021/06/23 13:20:14;;;;;;;6.03;3.50;;;;;;;;;;4994192;28;20217;-86
2021/06/23 13:23:19;;;;;;;4.20;3.22;;;;;;;;;;4994045;28;20190;-85
2021/06/23 13:26:25;;;;;;;4.75;3.28;;;;;;;;;;4983051;28;20870;-85
2021/06/23 13:29:29;;;;;;;4.30;2.60;;;;;;;;;;4994502;28;20210;-85
2021/06/23 13:32:33;;;;;;;4.72;3.13;;;;;;;;;;4995145;28;20190;-85
2021/06/23 13:35:37;;;;;;;6.47;3.15;;;;;;;;;;4982375;28;20202;-84
2021/06/23 13:38:41;;;;;;;3.03;2.72;;;;;;;;;;4994963;28;20555;-85
2021/06/23 13:41:45;;;;;;;4.07;2.60;;;;;;;;;;4991464;28;20195;-85
2021/06/23 13:44:50;;;;;;;3.97;2.65;;;;;;;;;;4994483;28;20186;-85
2021/06/23 13:47:54;;;;;;;2.63;2.42;;;;;;;;;;4975058;28;20183;-84
2021/06/23 13:50:58;;;;;;;4.53;2.47;;;;;;;;;;4979655;28;20190;-85
2021/06/23 13:54:03;;;;;;;9.23;2.60;;;;;;;;;;4984465;28;20649;-85
2021/06/23 13:57:10;;;;;;;6.72;2.75;;;;;;;;;;5007664;28;20186;-85
2021/06/23 14:00:14;;;;;;;5.35;2.45;;;;;;;;;;4997080;28;20214;-85
2021/06/23 14:03:20;;;;;;;4.07;2.50;;;;;;;;;;4997366;28;20182;-85
2021/06/23 14:06:24;;;;;;;3.15;2.42;;;;;;;;;;4996447;28;20178;-85
2021/06/23 14:09:28;;;;;;;6.72;3.10;;;;;;;;;;4996520;28;20222;-85
2021/06/23 14:12:32;;;;;;;3.67;2.85;;;;;;;;;;4995152;28;20548;-85
2021/06/23 14:15:37;;;;;;;2.83;2.55;;;;;;;;;;4987181;28;20681;-85
2021/06/23 14:18:42;;;;;;;3.33;2.50;;;;;;;;;;4988258;28;20697;-85
2021/06/23 14:21:46;;;;;;;6.22;2.80;;;;;;;;;;4989598;28;20206;-85
2021/06/23 14:24:50;;;;;;;13.95;3.70;;;;;;;;;;5000398;28;20198;-85
2021/06/23 14:27:54;;;;;;;4.07;2.90;;;;;;;;;;4977689;28;20190;-85
2021/06/23 14:30:58;;;;;;;11.63;2.70;;;;;;;;;;4980616;28;20202;-85
2021/06/23 14:34:03;;;;;;;4.97;2.72;;;;;;;;;;4996703;28;20201;-85
2021/06/23 14:37:07;;;;;;;4.75;2.47;;;;;;;;;;4985144;28;20213;-85
2021/06/23 14:40:11;;;;;;;6.13;2.30;;;;;;;;;;5006634;28;20220;-85
2021/06/23 14:43:15;;;;;;;5.07;2.38;;;;;;;;;;4968320;28;20205;-85
2021/06/23 14:46:20;;;;;;;3.88;2.53;;;;;;;;;;4984336;28;20654;-85
2021/06/23 14:49:24;;;;;;;4.70;2.17;;;;;;;;;;4984537;28;20598;-84
2021/06/23 14:52:28;;;;;;;2.90;2.35;;;;;;;;;;4988092;28;20183;-84
2021/06/23 14:55:32;;;;;;;3.30;2.70;;;;;;;;;;4980565;28;20209;-85
2021/06/23 14:58:37;;;;;;;2.92;2.63;;;;;;;;;;4995343;28;20222;-84
2021/06/23 15:01:41;;;;;;;9.02;2.90;;;;;;;;;;4996758;28;20204;-85
2021/06/23 15:04:45;;;;;;;4.25;2.70;;;;;;;;;;4985074;28;20296;-85
2021/06/23 15:07:49;;;;;;;4.82;2.58;;;;;;;;;;4976386;28;20202;-85
2021/06/23 15:10:53;;;;;;;3.90;2.65;;;;;;;;;;4977893;28;20195;-85
2021/06/23 15:13:57;;;;;;;3.05;2.17;;;;;;;;;;4993025;28;20186;-85
2021/06/23 15:17:03;;;;;;;4.00;2.22;;;;;;;;;;4979408;28;20224;-85
2021/06/23 15:20:10;;;;;;;2.90;1.90;;;;;;;;;;4984126;28;20222;-84
2021/06/23 15:23:16;;;;;;;6.93;2.65;;;;;;;;;;4993602;28;20217;-85
2021/06/23 15:26:20;;;;;;;4.10;2.50;;;;;;;;;;5003635;28;20181;-85
2021/06/23 15:29:24;;;;;;;5.30;2.40;;;;;;;;;;4964870;28;20225;-85
2021/06/23 15:32:28;;;;;;;4.97;2.42;;;;;;;;;;4975102;28;20183;-85
2021/06/23 15:35:33;;;;;;;2.58;2.38;;;;;;;;;;4981365;28;20217;-85
2021/06/23 15:38:41;;;;;;;5.95;2.70;;;;;;;;;;4986954;28;20233;-85
2021/06/23 15:41:47;;;;;;;3.03;2.60;;;;;;;;;;5009570;28;20691;-85
2021/06/23 15:44:52;;;;;;;3.60;2.55;;;;;;;;;;4992188;28;20202;-85
2021/06/23 15:47:56;;;;;;;6.32;2.95;;;;;;;;;;5005961;28;20201;-86
2021/06/23 15:51:02;;;;;;;3.70;2.00;;;;;;;;;;4979383;28;20188;-85
2021/06/23 15:54:06;;;;;;;6.30;2.38;;;;;;;;;;4975336;28;20189;-84
2021/06/23 15:57:11;;;;;;;5.07;2.80;;;;;;;;;;4979629;28;20217;-85
2021/06/23 16:00:16;;;;;;;2.97;2.47;;;;;;;;;;4974769;28;20218;-85
2021/06/23 16:03:21;;;;;;;5.70;2.55;;;;;;;;;;4989555;28;20200;-85
2021/06/23 16:06:25;;;;;;;2.78;2.30;;;;;;;;;;4990841;28;20179;-85
2021/06/23 16:09:29;;;;;;;4.45;3.70;;;;;;;;;;4970762;28;20690;-85
2021/06/23 16:12:33;;;;;;;4.10;2.63;;;;;;;;;;4982879;28;20201;-85
2021/06/23 16:15:38;;;;;;;3.70;2.80;;;;;;;;;;4972342;28;20538;-85
2021/06/23 16:18:42;;;;;;;6.68;2.72;;;;;;;;;;4989595;28;20580;-87
2021/06/23 16:21:47;;;;;;;6.15;2.60;;;;;;;;;;4970505;28;20539;-86
2021/06/23 16:24:52;;;;;;;4.68;2.63;;;;;;;;;;4980845;28;20669;-85
2021/06/23 16:27:56;;;;;;;3.35;2.55;;;;;;;;;;4971900;28;20194;-85
2021/06/23 16:31:01;;;;;;;6.97;2.67;;;;;;;;;;4972259;28;20505;-84
2021/06/23 16:34:05;;;;;;;3.10;2.70;;;;;;;;;;4975483;28;20527;-85
2021/06/23 16:37:10;;;;;;;3.67;2.70;;;;;;;;;;4984222;28;20217;-85
2021/06/23 16:40:15;;;;;;;6.07;2.93;;;;;;;;;;4976081;28;20226;-85
2021/06/23 16:43:19;;;;;;;4.00;2.90;;;;;;;;;;4976046;28;20496;-85
2021/06/23 16:46:23;;;;;;;4.60;2.30;;;;;;;;;;4977586;28;20188;-85
2021/06/23 16:49:28;;;;;;;5.40;2.90;;;;;;;;;;4977788;28;20237;-85
2021/06/23 16:52:34;;;;;;;5.77;3.03;;;;;;;;;;4994189;28;20203;-87
2021/06/23 16:55:53;;;;;;;3.40;3.10;;;;;;;;;;4981010;28;20195;-88
2021/06/23 16:58:57;;;;;;;7.47;3.17;;;;;;;;;;5015042;28;20216;-87
2021/06/23 17:02:03;;;;;;;9.90;4.80;;;;;;;;;;4972738;28;20202;-87
2021/06/23 17:05:08;;;;;;;6.23;3.37;;;;;;;;;;4977108;28;20206;-85
2021/06/23 17:08:12;;;;;;;3.70;3.37;;;;;;;;;;4982048;28;20183;-84
2021/06/23 17:11:17;;;;;;;3.63;3.20;;;;;;;;;;5010885;28;20184;-84
2021/06/23 17:14:23;;;;;;;4.70;3.10;;;;;;;;;;4988701;28;20191;-85
2021/06/23 17:17:27;;;;;;;5.90;3.97;;;;;;;;;;4989665;28;20214;-84
2021/06/23 17:20:33;;;;;;;6.80;3.50;;;;;;;;;;4989173;28;20180;-85
2021/06/23 17:23:37;;;;;;;8.50;3.60;;;;;;;;;;4988111;28;20191;-85
2021/06/23 17:26:42;;;;;;;4.20;3.80;;;;;;;;;;4978158;28;20194;-84
2021/06/23 17:29:48;;;;;;;5.70;3.87;;;;;;;;;;4991834;28;20223;-85
2021/06/23 17:32:53;;;;;;;7.70;3.83;;;;;;;;;;5002820;28;20192;-85
2021/06/23 17:35:58;;;;;;;5.80;3.73;;;;;;;;;;5032846;23;20233;-77
2021/06/23 17:39:03;;;;;;;6.37;4.13;;;;;;;;;;5001841;28;20186;-76
2021/06/23 17:42:08;;;;;;;4.37;3.40;;;;;;;;;;5014983;28;20181;-76
2021/06/23 17:45:13;;;;;;;6.03;3.87;;;;;;;;;;4984622;28;20199;-76
2021/06/23 17:48:17;;;;;;;6.00;4.00;;;;;;;;;;4996461;28;20222;-76
2021/06/23 17:51:21;;;;;;;5.70;3.50;;;;;;;;;;4973899;28;20178;-76
2021/06/23 17:54:25;;;;;;;5.33;4.10;;;;;;;;;;5002590;28;20185;-76
2021/06/23 17:57:29;;;;;;;8.47;4.13;;;;;;;;;;5007775;28;20572;-76
2021/06/23 18:00:34;;;;;;;5.33;3.70;;;;;;;;;;4991429;28;20194;-75
2021/06/23 18:03:39;;;;;;;11.20;4.97;;;;;;;;;;5006012;28;20188;-76
2021/06/23 18:06:43;;;;;;;9.50;4.67;;;;;;;;;;5014450;28;20217;-76
2021/06/23 18:09:48;;;;;;;6.80;4.13;;;;;;;;;;5014920;28;20541;-76
2021/06/23 18:12:52;;;;;;;4.87;4.37;;;;;;;;;;5015884;28;20186;-76
2021/06/23 18:15:56;;;;;;;6.57;4.73;;;;;;;;;;5015693;28;20189;-76
2021/06/23 18:19:00;;;;;;;5.13;4.63;;;;;;;;;;5012590;28;20177;-76
2021/06/23 18:22:05;;;;;;;21.83;7.13;;;;;;;;;;5000295;28;20189;-76
2021/06/23 18:25:10;;;;;;;33.37;6.50;;;;;;;;;;5012302;28;20210;-77
2021/06/23 18:28:15;;;;;;;22.53;6.00;;;;;;;;;;5011518;28;20691;-76
2021/06/23 18:31:19;;;;;;;5.77;5.17;;;;;;;;;;5010238;28;20186;-77
2021/06/23 18:34:23;;;;;;;13.53;5.60;;;;;;;;;;4988138;28;20198;-77
2021/06/23 18:37:27;;;;;;;6.37;4.97;;;;;;;;;;4995108;28;20220;-76
2021/06/23 18:40:32;;;;;;;8.87;6.03;;;;;;;;;;4999387;28;20546;-77
2021/06/23 18:43:36;;;;;;;14.80;6.03;;;;;;;;;;5000549;28;20178;-77
2021/06/23 18:46:41;;;;;;;7.67;5.17;;;;;;;;;;5011714;28;20687;-77
2021/06/23 18:49:45;;;;;;;7.47;6.27;;;;;;;;;;4998020;28;20189;-76
2021/06/23 18:52:49;;;;;;;10.80;7.50;;;;;;;;;;5010160;28;20201;-77